| time (UTC) | temp C | wind direction | speed KPH | gust KPH | rain 1hr cm | rain 24hr cm | rain mn cm | humidity % | barometer mb |
| 20260505193042 | 18 | 54 | 4.8 | 27.4 | 0.15 | 9.17 | 8.18 | 100 | 1006.5 |
| 20260505191540 | 18 | 127 | 12.9 | 33.8 | 0.15 | 9.12 | 8.13 | 100 | 1006.2 |
| 20260505190046 | 18 | 115 | 14.5 | 37.0 | 1.57 | 9.07 | 8.08 | 100 | 1005.8 |
| 20260505184542 | 18 | 17 | 17.7 | 33.8 | 2.82 | 9.04 | 8.03 | 99 | 1006.4 |
| 20260505183039 | 17 | 44 | 16.1 | 43.5 | 3.66 | 9.02 | 8.00 | 99 | 1006.5 |
| 20260505181540 | 17 | 93 | 11.3 | 33.8 | 3.99 | 8.99 | 7.98 | 99 | 1006.1 |
| 20260505180108 | 17 | 92 | 8.0 | 24.1 | 2.82 | 7.39 | 6.38 | 99 | 1007.6 |
| 20260505174558 | 17 | 70 | 11.3 | 32.2 | 1.63 | 7.04 | 5.16 | 98 | 1007.7 |
| 20260505173044 | 18 | 49 | 9.7 | 27.4 | 0.76 | 6.20 | 4.29 | 98 | 1007.8 |
| 20260505171541 | 17 | 94 | 4.8 | 22.5 | 0.48 | 5.87 | 3.96 | 98 | 1007.4 |
| 20260505170041 | 17 | 133 | 12.9 | 33.8 | 0.43 | 5.44 | 3.56 | 96 | 1007.6 |
| 20260505164542 | 17 | 104 | 11.3 | 24.1 | 0.84 | 5.87 | 3.51 | 99 | 1007.3 |
| 20260505163047 | 16 | 163 | 6.4 | 32.2 | 1.17 | 5.87 | 3.51 | 99 | 1007.3 |
| 20260505161540 | 16 | 120 | 16.1 | 30.6 | 1.37 | 5.82 | 3.48 | 100 | 1005.6 |
| 20260505153042 | 15 | 0 | 0.0 | 11.3 | 0.48 | 4.70 | 2.31 | 99 | 1008.9 |
| 20260505151537 | 15 | 295 | 0.0 | 0.0 | 0.33 | 4.50 | 2.08 | 99 | 1009.0 |
| 20260505124539 | 15 | 309 | 4.8 | 12.9 | 0.15 | 4.93 | 1.17 | 98 | 1009.8 |
| 20260505123036 | 15 | 300 | 6.4 | 12.9 | 0.05 | 4.83 | 1.07 | 98 | 1009.7 |
| 20260505121535 | 15 | 271 | 6.4 | 16.1 | 0.00 | 4.78 | 1.02 | 98 | 1009.6 |
| 20260505120042 | 15 | 273 | 8.0 | 17.7 | 0.00 | 4.78 | 1.02 | 98 | 1009.9 |
| 20260505114552 | 15 | 266 | 8.0 | 19.3 | 0.00 | 4.78 | 1.02 | 98 | 1010.1 |
| 20260505113041 | 15 | 261 | 8.0 | 17.7 | 0.00 | 4.78 | 1.02 | 97 | 1010.3 |
| 20260505111542 | 15 | 262 | 6.4 | 19.3 | 0.00 | 4.75 | 0.99 | 98 | 1010.6 |
| 20260505101541 | 14 | 301 | 6.4 | 12.9 | 0.08 | 4.75 | 0.99 | 98 | 1011.8 |
| 20260505100040 | 14 | 271 | 4.8 | 14.5 | 0.08 | 4.75 | 0.99 | 98 | 1012.1 |
| 20260505094543 | 14 | 252 | 6.4 | 16.1 | 0.03 | 4.70 | 0.94 | 98 | 1012.2 |
| 20260505093049 | 14 | 326 | 3.2 | 14.5 | 0.00 | 4.70 | 0.94 | 98 | 1012.5 |
| 20260505091605 | 14 | 245 | 8.0 | 19.3 | 0.00 | 4.67 | 0.91 | 97 | 1012.4 |
| 20260505090044 | 14 | 275 | 8.0 | 17.7 | 0.05 | 4.67 | 0.91 | 97 | 1012.4 |
| 20260505084542 | 15 | 264 | 6.4 | 16.1 | 0.05 | 4.67 | 0.91 | 97 | 1012.3 |
| 20260505083040 | 14 | 316 | 6.4 | 16.1 | 0.05 | 4.67 | 0.91 | 97 | 1012.4 |
| 20260505081549 | 14 | 277 | 4.8 | 19.3 | 0.03 | 4.65 | 0.89 | 97 | 1012.5 |
| 20260505080037 | 15 | 252 | 8.0 | 17.7 | 0.00 | 4.60 | 0.84 | 96 | 1012.8 |
| 20260505074545 | 15 | 260 | 4.8 | 11.3 | 0.00 | 4.60 | 0.84 | 97 | 1012.8 |
| 20260505073045 | 15 | 244 | 6.4 | 17.7 | 0.00 | 4.60 | 0.84 | 98 | 1012.8 |
| 20260505071552 | 15 | 283 | 8.0 | 19.3 | 0.00 | 4.60 | 0.84 | 98 | 1012.7 |
| 20260505070047 | 15 | 289 | 6.4 | 16.1 | 0.00 | 4.60 | 0.84 | 98 | 1012.7 |
| 20260505064541 | 15 | 266 | 6.4 | 17.7 | 0.00 | 4.60 | 0.84 | 98 | 1012.4 |
| 20260505063047 | 14 | 258 | 6.4 | 16.1 | 0.00 | 4.60 | 0.84 | 98 | 1012.3 |
| 20260505061607 | 14 | 259 | 6.4 | 16.1 | 0.00 | 4.60 | 0.84 | 98 | 1012.3 |
| 20260505060046 | 14 | 293 | 8.0 | 12.9 | 0.00 | 4.60 | 0.84 | 98 | 1012.1 |
| 20260505054545 | 14 | 281 | 6.4 | 12.9 | 0.00 | 4.60 | 0.84 | 98 | 1011.9 |
| 20260505053044 | 14 | 263 | 8.0 | 20.9 | 0.00 | 4.60 | 0.84 | 98 | 1011.8 |
| 20260505051604 | 14 | 297 | 8.0 | 16.1 | 0.08 | 4.60 | 0.84 | 99 | 1011.7 |
| 20260505041547 | 14 | 251 | 11.3 | 22.5 | 0.38 | 4.50 | 0.74 | 98 | 1010.8 |
| 20260505040040 | 15 | 274 | 11.3 | 20.9 | 0.58 | 4.42 | 0.64 | 98 | 1010.7 |
| 20260505034546 | 15 | 259 | 9.7 | 25.7 | 0.58 | 4.39 | 0.64 | 98 | 1010.7 |
| 20260505033043 | 15 | 236 | 11.3 | 20.9 | 0.51 | 4.32 | 0.56 | 98 | 1010.7 |
| 20260505031541 | 15 | 294 | 8.0 | 16.1 | 0.30 | 4.11 | 0.36 | 98 | 1010.9 |
| 20260505030038 | 15 | 254 | 8.0 | 16.1 | 0.00 | 3.78 | 0.03 | 98 | 1010.7 |
| 20260505024544 | 15 | 269 | 6.4 | 17.7 | 0.00 | 3.78 | 0.03 | 98 | 1010.3 |
| 20260505023040 | 15 | 255 | 9.7 | 20.9 | 0.00 | 3.78 | 0.03 | 98 | 1010.4 |
| 20260505021550 | 15 | 233 | 9.7 | 19.3 | 0.00 | 3.78 | 0.03 | 98 | 1010.2 |
| 20260505020042 | 15 | 282 | 8.0 | 19.3 | 0.00 | 3.78 | 0.03 | 98 | 1010.1 |
| 20260505014541 | 15 | 274 | 8.0 | 19.3 | 0.00 | 3.78 | 0.03 | 98 | 1010.2 |
| 20260505013041 | 15 | 249 | 8.0 | 17.7 | 0.00 | 3.78 | 0.03 | 98 | 1010.1 |
| 20260505011541 | 15 | 258 | 8.0 | 19.3 | 0.00 | 3.78 | 0.03 | 98 | 1010.5 |
| 20260505004544 | 16 | 255 | 8.0 | 17.7 | 0.00 | 3.78 | 0.03 | 99 | 1011.1 |
| 20260505003041 | 16 | 209 | 8.0 | 17.7 | 0.00 | 3.78 | 0.03 | 99 | 1011.2 |
| 20260505001541 | 16 | 240 | 4.8 | 14.5 | 0.00 | 3.78 | 0.03 | 99 | 1011.1 |
| 20260505000044 | 16 | 279 | 6.4 | 14.5 | 0.00 | 3.78 | 0.03 | 99 | 1011.2 |
| 20260504234546 | 16 | 227 | 3.2 | 11.3 | 0.00 | 3.78 | 0.03 | 99 | 1010.9 |
| 20260504233101 | 16 | 0 | 0.0 | 3.2 | 0.03 | 3.78 | 0.03 | 99 | 1011.2 |
| 20260504231546 | 16 | 282 | 1.6 | 6.4 | 0.03 | 3.78 | 0.03 | 99 | 1011.0 |
| 20260504230051 | 17 | 252 | 4.8 | 9.7 | 0.03 | 3.78 | 0.03 | 99 | 1011.0 |
| 20260504224537 | 17 | 267 | 0.0 | 6.4 | 0.00 | 3.76 | 0.00 | 99 | 1010.8 |
| 20260504223041 | 17 | 256 | 0.0 | 4.8 | 0.00 | 3.76 | 0.00 | 99 | 1011.1 |
| 20260504221543 | 17 | 217 | 0.0 | 6.4 | 0.00 | 3.76 | 0.00 | 99 | 1011.0 |
| 20260504220040 | 17 | 211 | 0.0 | 1.6 | 0.36 | 3.76 | 0.00 | 99 | 1011.1 |
| 20260504214537 | 17 | 0 | 0.0 | 6.4 | 0.41 | 3.76 | 3.76 | 99 | 1010.9 |
| 20260504213034 | 17 | 198 | 1.6 | 9.7 | 0.48 | 3.76 | 3.76 | 98 | 1010.9 |
| 20260504211543 | 17 | 12 | 4.8 | 12.9 | 0.84 | 3.73 | 3.73 | 98 | 1011.3 |
| 20260504210045 | 17 | 212 | 3.2 | 11.3 | 0.46 | 3.35 | 3.35 | 99 | 1011.5 |
| 20260504204547 | 17 | 205 | 8.0 | 14.5 | 0.46 | 3.33 | 3.33 | 99 | 1010.8 |
| 20260504203051 | 17 | 211 | 8.0 | 17.7 | 0.41 | 3.23 | 3.23 | 98 | 1011.0 |
| 20260504201535 | 18 | 153 | 6.4 | 16.1 | 0.13 | 2.90 | 2.90 | 99 | 1011.3 |
| 20260504200242 | 18 | 174 | 6.4 | 14.5 | 0.13 | 2.90 | 2.90 | 99 | 1011.0 |
| 20260504194540 | 17 | 251 | 3.2 | 14.5 | 0.10 | 2.87 | 2.87 | 98 | 1010.7 |